createdAt,value
2022-11-08T00:00:05.356Z,12.30
2022-11-08T00:02:33.691Z,12.22
2022-11-08T00:05:21.018Z,12.19
2022-11-08T00:08:06.372Z,12.16
2022-11-08T00:10:52.974Z,12.12
2022-11-08T00:13:40.048Z,12.10
2022-11-08T00:16:08.040Z,12.09
2022-11-08T00:18:35.581Z,12.05
2022-11-08T00:21:04.799Z,12.05
2022-11-08T00:23:32.434Z,12.07
2022-11-08T00:26:00.076Z,11.96
2022-11-08T00:28:27.852Z,11.95
2022-11-08T00:30:56.015Z,11.93
2022-11-08T00:33:23.545Z,11.92
2022-11-08T00:35:51.087Z,11.91
2022-11-08T00:41:13.565Z,11.84
2022-11-08T00:43:42.066Z,11.81
2022-11-08T00:46:09.986Z,11.81
2022-11-08T00:48:37.644Z,11.80
2022-11-08T00:51:06.994Z,11.76
2022-11-08T00:53:37.974Z,11.75
2022-11-08T00:56:09.292Z,11.77
2022-11-08T00:58:37.579Z,11.73
2022-11-08T01:01:10.974Z,11.73
2022-11-08T01:03:39.353Z,11.69
2022-11-08T01:06:08.862Z,11.70
2022-11-08T01:08:37.995Z,11.69
2022-11-08T01:11:08.241Z,11.65
2022-11-08T01:13:36.729Z,11.63
2022-11-08T01:16:10.638Z,11.61
2022-11-08T01:18:38.595Z,11.61
2022-11-08T01:21:07.030Z,11.60
2022-11-08T01:23:35.468Z,11.58
2022-11-08T01:26:06.449Z,11.57
2022-11-08T01:28:35.001Z,11.55
2022-11-08T01:31:06.031Z,11.54
2022-11-08T01:33:33.696Z,11.53
2022-11-08T01:36:01.337Z,11.50
2022-11-08T01:38:28.955Z,11.45
2022-11-08T01:40:56.494Z,11.45
2022-11-08T01:43:37.006Z,11.46
2022-11-08T01:46:39.050Z,11.43
2022-11-08T01:49:32.370Z,11.39
2022-11-08T01:52:11.550Z,11.38
2022-11-08T01:54:44.595Z,11.37
2022-11-08T01:57:43.999Z,11.38
2022-11-08T02:00:14.469Z,11.41
2022-11-08T02:02:44.579Z,11.42
2022-11-08T02:05:25.649Z,11.45
2022-11-08T02:08:02.023Z,11.49
2022-11-08T02:10:35.446Z,11.50
2022-11-08T02:13:05.915Z,11.54
2022-11-08T02:15:36.894Z,11.63
2022-11-08T02:18:05.308Z,11.61
2022-11-08T02:20:34.069Z,11.63
2022-11-08T02:23:09.824Z,11.63
2022-11-08T02:25:38.983Z,11.70
2022-11-08T02:28:07.019Z,11.72
2022-11-08T02:30:34.850Z,11.71
2022-11-08T02:33:16.002Z,11.74
2022-11-08T02:35:45.367Z,11.77
2022-11-08T02:38:14.111Z,11.80
2022-11-08T02:40:51.465Z,11.85
2022-11-08T02:43:24.402Z,11.85
2022-11-08T02:45:53.209Z,11.92
2022-11-08T02:48:21.613Z,11.95
2022-11-08T02:50:49.310Z,12.02
2022-11-08T02:53:18.843Z,11.98
2022-11-08T02:55:48.085Z,12.01
2022-11-08T02:58:17.263Z,12.02
2022-11-08T03:00:45.248Z,12.03
2022-11-08T03:03:12.981Z,12.06
2022-11-08T03:05:47.481Z,12.07
2022-11-08T03:08:16.901Z,12.10
2022-11-08T03:10:46.390Z,12.10
2022-11-08T03:13:14.011Z,12.09
2022-11-08T03:15:42.945Z,12.09
2022-11-08T03:18:13.002Z,12.07
2022-11-08T03:20:40.561Z,12.06
2022-11-08T03:23:09.552Z,12.03
2022-11-08T03:26:03.305Z,12.01
2022-11-08T03:28:33.013Z,11.97
2022-11-08T03:31:02.081Z,11.95
2022-11-08T03:33:30.626Z,11.93
2022-11-08T03:35:58.290Z,11.89
2022-11-08T03:38:25.907Z,11.86
2022-11-08T03:40:54.072Z,11.83
2022-11-08T03:43:24.028Z,11.80
2022-11-08T03:45:52.503Z,11.76
2022-11-08T03:48:23.442Z,11.73
2022-11-08T03:50:51.458Z,11.69
2022-11-08T03:53:18.991Z,11.66
2022-11-08T03:55:48.036Z,11.62
2022-11-08T03:58:15.865Z,11.58
2022-11-08T04:00:44.437Z,11.53
2022-11-08T04:03:12.158Z,11.48
2022-11-08T04:05:41.172Z,11.43
2022-11-08T04:08:08.797Z,11.39
2022-11-08T04:10:38.372Z,11.34
2022-11-08T04:13:24.012Z,11.30
2022-11-08T04:15:55.804Z,11.26
2022-11-08T04:18:44.941Z,11.21
2022-11-08T04:21:23.020Z,11.14
2022-11-08T04:23:53.097Z,11.10
2022-11-08T04:26:22.259Z,11.06
2022-11-08T04:28:50.085Z,11.03
2022-11-08T04:31:20.428Z,11.00
2022-11-08T04:33:48.020Z,10.95
2022-11-08T04:36:19.048Z,10.91
2022-11-08T04:39:14.069Z,10.87
2022-11-08T04:41:45.014Z,10.83
2022-11-08T04:44:15.460Z,10.79
2022-11-08T04:46:45.024Z,10.75
2022-11-08T04:49:15.105Z,10.73
2022-11-08T04:51:43.993Z,10.70
2022-11-08T04:54:12.017Z,10.68
2022-11-08T04:56:41.544Z,10.65
2022-11-08T04:59:12.202Z,10.65
2022-11-08T05:01:40.244Z,10.62
2022-11-08T05:04:08.041Z,10.60
2022-11-08T05:06:37.842Z,10.60
2022-11-08T05:09:06.823Z,10.59
2022-11-08T05:11:34.354Z,10.62
2022-11-08T05:14:01.918Z,10.60
2022-11-08T05:16:32.766Z,10.62
2022-11-08T05:19:00.876Z,10.64
2022-11-08T05:21:46.266Z,10.62
2022-11-08T05:24:18.819Z,10.59
2022-11-08T05:26:50.311Z,10.61
2022-11-08T05:29:18.635Z,10.63
2022-11-08T05:31:46.449Z,10.62
2022-11-08T05:34:14.563Z,10.63
2022-11-08T05:36:43.145Z,10.68
2022-11-08T05:39:11.017Z,10.68
2022-11-08T05:41:39.883Z,10.72
2022-11-08T05:44:07.576Z,10.68
2022-11-08T05:46:35.169Z,10.72
2022-11-08T05:49:04.049Z,10.69
2022-11-08T05:51:34.454Z,10.67
2022-11-08T05:54:02.500Z,10.72
2022-11-08T05:56:30.100Z,10.70
2022-11-08T05:58:59.056Z,10.70
2022-11-08T06:01:27.682Z,10.72
2022-11-08T06:03:55.550Z,10.72
2022-11-08T06:06:23.817Z,10.74
2022-11-08T06:08:52.188Z,10.73
2022-11-08T06:11:24.061Z,10.76
2022-11-08T06:13:53.365Z,10.71
2022-11-08T06:16:24.206Z,10.72
2022-11-08T06:18:51.938Z,10.74
2022-11-08T06:21:22.795Z,10.70
2022-11-08T06:23:53.662Z,10.71
2022-11-08T06:26:22.141Z,10.74
2022-11-08T06:28:49.737Z,10.72
2022-11-08T06:31:17.339Z,10.72
2022-11-08T06:33:48.062Z,10.80
2022-11-08T06:36:15.601Z,10.77
2022-11-08T06:38:43.379Z,10.78
2022-11-08T06:41:18.549Z,10.78
2022-11-08T06:43:46.579Z,10.77
2022-11-08T06:46:14.511Z,10.84
2022-11-08T06:48:43.165Z,10.79
2022-11-08T06:51:15.926Z,10.84
2022-11-08T06:54:14.175Z,10.87
2022-11-08T06:56:44.784Z,10.87
2022-11-08T06:59:13.029Z,10.91
2022-11-08T07:01:45.500Z,10.93
2022-11-08T07:04:15.146Z,10.98
2022-11-08T07:06:44.199Z,11.02
2022-11-08T07:09:14.014Z,11.08
2022-11-08T07:11:41.594Z,11.09
2022-11-08T07:14:10.038Z,11.14
2022-11-08T07:16:37.639Z,11.12
2022-11-08T07:19:06.011Z,11.21
2022-11-08T07:21:34.125Z,11.30
2022-11-08T07:24:03.069Z,11.32
2022-11-08T07:26:30.629Z,11.39
2022-11-08T07:29:00.071Z,11.46
2022-11-08T07:31:27.866Z,11.50
2022-11-08T07:33:56.125Z,11.53
2022-11-08T07:36:23.665Z,11.59
2022-11-08T07:38:52.844Z,11.62
2022-11-08T07:41:21.890Z,11.64
2022-11-08T07:43:49.442Z,11.67
2022-11-08T07:46:18.403Z,11.70
2022-11-08T07:48:46.533Z,11.69
2022-11-08T07:51:14.081Z,11.73
2022-11-08T07:53:44.683Z,11.83
2022-11-08T07:56:13.098Z,11.88
2022-11-08T07:59:07.259Z,11.97
2022-11-08T08:01:36.107Z,12.01
2022-11-08T08:04:04.550Z,12.08
2022-11-08T08:06:33.530Z,12.09
2022-11-08T08:09:02.026Z,12.08
2022-11-08T08:11:33.602Z,12.07
2022-11-08T08:14:01.419Z,12.15
2022-11-08T08:16:30.323Z,12.16
2022-11-08T08:18:57.880Z,12.14
2022-11-08T08:21:25.656Z,12.16
2022-11-08T08:23:53.224Z,12.14
2022-11-08T08:26:20.792Z,12.21
2022-11-08T08:28:48.287Z,12.24
2022-11-08T08:31:18.032Z,12.21
2022-11-08T08:33:47.925Z,12.24
2022-11-08T08:36:15.560Z,12.26
2022-11-08T08:38:44.694Z,12.28
2022-11-08T08:41:14.389Z,12.35
2022-11-08T08:43:42.072Z,12.42
2022-11-08T08:46:12.107Z,12.45
2022-11-08T08:48:40.578Z,12.49
2022-11-08T08:51:11.137Z,12.57
2022-11-08T08:53:39.054Z,12.65
2022-11-08T08:56:11.037Z,12.71
2022-11-08T08:58:40.529Z,12.70
2022-11-08T09:03:58.182Z,12.84
2022-11-08T09:06:28.112Z,12.85
2022-11-08T09:08:56.555Z,12.95
2022-11-08T09:11:24.251Z,12.99
2022-11-08T09:13:52.517Z,13.04
2022-11-08T09:16:20.807Z,13.13
2022-11-08T09:18:48.571Z,13.16
2022-11-08T09:21:16.585Z,13.22
2022-11-08T09:23:45.603Z,13.29
2022-11-08T09:26:13.181Z,13.39
2022-11-08T09:28:41.037Z,13.48
2022-11-08T09:31:11.192Z,13.58
2022-11-08T09:33:40.164Z,13.63
2022-11-08T09:36:10.138Z,13.74
2022-11-08T09:38:39.028Z,13.78
2022-11-08T09:41:31.043Z,13.87
2022-11-08T09:44:13.801Z,13.94
2022-11-08T09:46:49.695Z,14.02
2022-11-08T09:49:23.067Z,14.05
2022-11-08T09:51:53.053Z,14.11
2022-11-08T09:54:25.091Z,14.15
2022-11-08T09:56:55.449Z,14.21
2022-11-08T09:59:36.123Z,14.26
2022-11-08T10:02:04.145Z,14.34
2022-11-08T10:04:34.145Z,14.43
2022-11-08T10:07:23.573Z,14.50
2022-11-08T10:10:24.242Z,14.57
2022-11-08T10:13:01.869Z,14.63
2022-11-08T10:15:38.156Z,14.69
2022-11-08T10:18:40.057Z,14.80
2022-11-08T10:21:13.853Z,14.85
2022-11-08T10:23:46.209Z,14.94
2022-11-08T10:26:18.063Z,15.06
2022-11-08T10:28:54.062Z,15.16
2022-11-08T10:31:22.926Z,15.24
2022-11-08T10:33:52.892Z,15.32
2022-11-08T10:36:25.315Z,15.35
2022-11-08T10:39:01.807Z,15.44
2022-11-08T10:41:36.445Z,15.50
2022-11-08T10:44:15.209Z,15.53
2022-11-08T10:46:45.130Z,15.58
2022-11-08T10:49:17.526Z,15.61
2022-11-08T10:51:46.310Z,15.65
2022-11-08T10:54:44.401Z,15.61
2022-11-08T10:57:15.084Z,15.69
2022-11-08T10:59:46.049Z,15.66
2022-11-08T11:02:26.415Z,15.67
2022-11-08T11:04:56.037Z,15.68
2022-11-08T11:07:35.330Z,15.75
2022-11-08T11:10:24.398Z,15.76
2022-11-08T11:13:00.224Z,15.78
2022-11-08T11:15:34.458Z,15.81
2022-11-08T11:18:03.023Z,15.84
2022-11-08T11:20:31.164Z,15.84
2022-11-08T11:23:01.114Z,15.83
2022-11-08T11:25:28.968Z,15.90
2022-11-08T11:27:59.475Z,15.95
2022-11-08T11:30:32.155Z,15.92
2022-11-08T11:33:04.269Z,15.93
2022-11-08T11:35:45.551Z,15.97
2022-11-08T11:38:23.521Z,15.97
2022-11-08T11:40:54.855Z,16.01
2022-11-08T11:43:29.066Z,16.01
2022-11-08T11:46:04.729Z,16.02
2022-11-08T11:48:40.811Z,16.02
2022-11-08T11:51:11.312Z,16.02
2022-11-08T11:53:41.724Z,16.06
2022-11-08T11:56:42.334Z,16.08
2022-11-08T11:59:40.614Z,16.08
2022-11-08T12:02:36.921Z,16.07
2022-11-08T12:05:37.013Z,16.13
2022-11-08T12:08:21.111Z,16.08
2022-11-08T12:11:04.688Z,16.08
2022-11-08T12:13:43.082Z,16.09
2022-11-08T12:16:19.218Z,16.10
2022-11-08T12:19:02.059Z,16.14
2022-11-08T12:21:35.539Z,16.19
2022-11-08T12:24:22.488Z,16.19
2022-11-08T12:27:01.537Z,16.21
2022-11-08T12:29:34.297Z,16.18
2022-11-08T12:32:21.765Z,16.24
2022-11-08T12:35:03.330Z,16.20
2022-11-08T12:37:48.243Z,16.22
2022-11-08T12:40:24.336Z,16.20
2022-11-08T12:43:01.600Z,16.20
2022-11-08T12:45:50.926Z,16.26
2022-11-08T12:48:32.071Z,16.28
2022-11-08T12:51:12.136Z,16.38
2022-11-08T12:53:50.277Z,16.28
2022-11-08T12:56:22.405Z,16.33
2022-11-08T12:58:53.170Z,16.31
2022-11-08T13:01:21.910Z,16.36
2022-11-08T13:04:31.522Z,16.34
2022-11-08T13:07:03.986Z,16.38
2022-11-08T13:09:45.619Z,16.37
2022-11-08T13:12:28.354Z,16.39
2022-11-08T13:14:57.057Z,16.41
2022-11-08T13:17:26.873Z,16.34
2022-11-08T13:20:00.800Z,16.33
2022-11-08T13:23:07.666Z,16.28
2022-11-08T13:26:09.572Z,16.25
2022-11-08T13:28:40.202Z,16.31
2022-11-08T13:31:30.478Z,16.22
2022-11-08T13:34:29.122Z,16.19
2022-11-08T13:37:13.493Z,16.14
2022-11-08T13:39:54.359Z,16.12
2022-11-08T13:42:39.250Z,16.14
2022-11-08T13:45:26.048Z,16.10
2022-11-08T13:48:01.641Z,16.15
2022-11-08T13:51:17.177Z,16.12
2022-11-08T13:53:49.662Z,16.10
2022-11-08T13:56:27.120Z,16.07
2022-11-08T13:58:56.087Z,16.11
2022-11-08T14:02:01.069Z,16.11
2022-11-08T14:04:33.450Z,16.13
2022-11-08T14:07:10.703Z,16.09
2022-11-08T14:12:50.307Z,16.07
2022-11-08T14:15:27.116Z,16.06
2022-11-08T14:18:01.083Z,16.01
2022-11-08T14:20:34.835Z,16.01
2022-11-08T14:23:16.253Z,16.01
2022-11-08T14:25:47.851Z,15.98
2022-11-08T14:28:23.666Z,15.97
2022-11-08T14:30:53.091Z,15.96
2022-11-08T14:33:23.136Z,15.93
2022-11-08T14:35:59.616Z,15.93
2022-11-08T14:38:28.173Z,15.93
2022-11-08T14:41:00.086Z,15.92
2022-11-08T14:43:28.426Z,15.91
2022-11-08T14:45:58.773Z,15.85
2022-11-08T14:48:30.801Z,15.83
2022-11-08T14:51:01.337Z,15.88
2022-11-08T14:53:33.534Z,15.81
2022-11-08T14:56:12.037Z,15.77
2022-11-08T14:58:41.068Z,15.75
2022-11-08T15:01:13.647Z,15.73
2022-11-08T15:03:47.103Z,15.70
2022-11-08T15:06:15.119Z,15.71
2022-11-08T15:09:07.095Z,15.67
2022-11-08T15:11:37.143Z,15.62
2022-11-08T15:14:09.088Z,15.60
2022-11-08T15:16:45.292Z,15.58
2022-11-08T15:19:28.671Z,15.53
2022-11-08T15:21:57.343Z,15.48
2022-11-08T15:24:33.910Z,15.45
2022-11-08T15:27:08.148Z,15.45
2022-11-08T15:29:52.234Z,15.42
2022-11-08T15:32:22.991Z,15.38
2022-11-08T15:34:56.716Z,15.36
2022-11-08T15:37:30.085Z,15.34
2022-11-08T15:40:01.674Z,15.37
2022-11-08T15:42:29.902Z,15.31
2022-11-08T15:45:05.883Z,15.30
2022-11-08T15:47:48.098Z,15.22
2022-11-08T15:50:20.195Z,15.23
2022-11-08T15:52:49.998Z,15.19
2022-11-08T15:55:21.146Z,15.22
2022-11-08T15:57:54.085Z,15.16
2022-11-08T16:00:25.118Z,15.16
2022-11-08T16:02:58.513Z,15.10
2022-11-08T16:05:29.089Z,15.09
2022-11-08T16:07:58.232Z,15.06
2022-11-08T16:10:31.080Z,15.03
2022-11-08T16:13:00.739Z,15.01
2022-11-08T16:15:32.094Z,15.02
2022-11-08T16:18:01.631Z,15.02
2022-11-08T16:20:31.797Z,15.02
2022-11-08T16:23:00.722Z,14.96
2022-11-08T16:25:29.816Z,14.98
2022-11-08T16:28:00.597Z,14.93
2022-11-08T16:30:29.870Z,14.96
2022-11-08T16:32:57.830Z,14.92
2022-11-08T16:35:27.373Z,14.88
2022-11-08T16:37:54.926Z,14.88
2022-11-08T16:40:24.611Z,14.87
2022-11-08T16:42:53.867Z,14.86
2022-11-08T16:45:43.552Z,14.87
2022-11-08T16:48:17.726Z,14.85
2022-11-08T16:50:49.115Z,14.85
2022-11-08T16:53:17.742Z,14.82
2022-11-08T16:55:46.045Z,14.86
2022-11-08T16:58:39.476Z,14.86
2022-11-08T17:01:10.696Z,14.84
2022-11-08T17:03:38.463Z,14.83
2022-11-08T17:06:07.903Z,14.85
2022-11-08T17:08:36.068Z,14.82
2022-11-08T17:11:03.635Z,14.90
2022-11-08T17:13:33.912Z,14.87
2022-11-08T17:16:05.611Z,14.86
2022-11-08T17:18:34.163Z,14.85
2022-11-08T17:21:29.946Z,14.83
2022-11-08T17:23:55.107Z,14.82
2022-11-08T17:26:22.801Z,14.84
2022-11-08T17:28:50.463Z,14.86
2022-11-08T17:31:20.343Z,14.80
2022-11-08T17:33:47.908Z,14.81
2022-11-08T17:36:16.861Z,14.82
2022-11-08T17:38:44.569Z,14.78
2022-11-08T17:41:14.093Z,14.77
2022-11-08T17:43:44.072Z,14.76
2022-11-08T17:46:12.824Z,14.81
2022-11-08T17:48:41.382Z,14.84
2022-11-08T17:51:09.537Z,14.84
2022-11-08T17:53:39.905Z,14.85
2022-11-08T17:56:08.607Z,14.93
2022-11-08T17:58:37.923Z,14.94
2022-11-08T18:01:07.863Z,14.95
2022-11-08T18:03:35.823Z,14.97
2022-11-08T18:06:05.900Z,15.02
2022-11-08T18:08:35.175Z,15.08
2022-11-08T18:11:06.108Z,15.17
2022-11-08T18:13:35.018Z,15.22
2022-11-08T18:16:10.295Z,15.21
2022-11-08T18:18:37.984Z,15.21
2022-11-08T18:21:06.531Z,15.30
2022-11-08T18:23:35.301Z,15.30
2022-11-08T18:26:04.083Z,15.25
2022-11-08T18:28:32.975Z,15.29
2022-11-08T18:31:06.098Z,15.28
2022-11-08T18:33:34.091Z,15.26
2022-11-08T18:36:06.109Z,15.25
2022-11-08T18:38:35.402Z,15.25
2022-11-08T18:41:05.991Z,15.27
2022-11-08T18:43:36.108Z,15.25
2022-11-08T18:46:04.946Z,15.23
2022-11-08T18:48:37.097Z,15.21
2022-11-08T18:51:05.473Z,15.20
2022-11-08T18:53:33.899Z,15.15
2022-11-08T18:56:01.874Z,15.18
2022-11-08T18:58:29.682Z,15.20
2022-11-08T19:00:59.089Z,15.29
2022-11-08T19:03:28.172Z,15.20
2022-11-08T19:05:56.832Z,15.18
2022-11-08T19:08:26.865Z,15.17
2022-11-08T19:10:57.183Z,15.14
2022-11-08T19:13:28.089Z,15.16
2022-11-08T19:16:00.133Z,15.19
2022-11-08T19:18:29.073Z,15.14
2022-11-08T19:20:57.825Z,15.14
2022-11-08T19:23:27.103Z,15.17
2022-11-08T19:25:57.745Z,15.17
2022-11-08T19:28:30.360Z,15.16
2022-11-08T19:31:03.168Z,15.13
2022-11-08T19:33:32.104Z,15.12
2022-11-08T19:36:05.211Z,15.13
2022-11-08T19:38:33.248Z,15.13
2022-11-08T19:41:02.759Z,15.12
2022-11-08T19:43:30.795Z,15.09
2022-11-08T19:46:05.993Z,15.10
2022-11-08T19:48:36.723Z,15.09
2022-11-08T19:51:07.090Z,15.06
2022-11-08T19:53:34.908Z,15.04
2022-11-08T19:56:03.604Z,15.03
2022-11-08T19:58:31.985Z,15.04
2022-11-08T20:01:07.862Z,15.01
2022-11-08T20:03:35.836Z,14.99
2022-11-08T20:06:03.676Z,14.99
2022-11-08T20:08:32.102Z,15.00
2022-11-08T20:11:00.146Z,14.96
2022-11-08T20:13:28.093Z,14.96
2022-11-08T20:15:55.625Z,14.93
2022-11-08T20:18:24.593Z,14.94
2022-11-08T20:20:52.483Z,14.92
2022-11-08T20:23:20.031Z,14.89
2022-11-08T20:25:48.786Z,14.89
2022-11-08T20:28:17.023Z,14.87
2022-11-08T20:30:44.853Z,14.85
2022-11-08T20:33:14.157Z,14.86
2022-11-08T20:35:43.086Z,14.82
2022-11-08T20:38:11.101Z,14.81
2022-11-08T20:40:40.486Z,14.81
2022-11-08T20:43:08.323Z,14.82
2022-11-08T20:45:39.814Z,14.81
2022-11-08T20:48:09.214Z,14.80
2022-11-08T20:50:39.100Z,14.79
2022-11-08T20:53:08.030Z,14.80
2022-11-08T20:55:35.591Z,14.80
2022-11-08T20:58:04.183Z,14.81
2022-11-08T21:00:56.770Z,14.79
2022-11-08T21:03:19.650Z,14.83
2022-11-08T21:05:51.591Z,14.86
2022-11-08T21:11:13.313Z,14.85
2022-11-08T21:13:43.778Z,14.84
2022-11-08T21:16:29.231Z,14.88
2022-11-08T21:18:59.141Z,14.92
2022-11-08T21:21:27.297Z,14.91
2022-11-08T21:23:58.164Z,14.88
2022-11-08T21:26:26.466Z,14.92
2022-11-08T21:28:54.622Z,14.93
2022-11-08T21:31:22.715Z,14.90
2022-11-08T21:33:50.365Z,14.94
2022-11-08T21:36:19.113Z,14.93
2022-11-08T21:38:46.751Z,14.95
2022-11-08T21:41:15.915Z,14.96
2022-11-08T21:43:45.315Z,14.96
2022-11-08T21:46:16.733Z,14.96
2022-11-08T21:48:45.215Z,15.01
2022-11-08T21:51:15.079Z,15.02
2022-11-08T21:53:52.438Z,15.02
2022-11-08T21:56:22.160Z,15.00
2022-11-08T21:58:51.823Z,14.98
2022-11-08T22:01:21.528Z,14.99
2022-11-08T22:03:51.825Z,14.98
2022-11-08T22:06:21.311Z,15.00
2022-11-08T22:08:52.712Z,14.96
2022-11-08T22:11:21.687Z,14.92
2022-11-08T22:13:49.305Z,14.90
2022-11-08T22:16:16.901Z,14.92
2022-11-08T22:21:43.493Z,14.88
2022-11-08T22:24:14.336Z,14.85
2022-11-08T22:26:43.454Z,14.81
2022-11-08T22:29:15.298Z,14.78
2022-11-08T22:31:43.467Z,14.77
2022-11-08T22:34:11.659Z,14.71
2022-11-08T22:36:44.788Z,14.68
2022-11-08T22:39:16.175Z,14.70
2022-11-08T22:41:48.200Z,14.67
2022-11-08T22:44:17.281Z,14.64
2022-11-08T22:46:46.643Z,14.64
2022-11-08T22:49:15.423Z,14.63
2022-11-08T22:51:44.185Z,14.63
2022-11-08T22:54:11.777Z,14.61
2022-11-08T22:56:40.156Z,14.65
2022-11-08T22:59:09.304Z,14.60
2022-11-08T23:01:37.927Z,14.60
2022-11-08T23:04:05.664Z,14.62
2022-11-08T23:06:33.413Z,14.64
2022-11-08T23:09:01.209Z,14.68
2022-11-08T23:11:46.574Z,14.64
2022-11-08T23:14:37.115Z,14.64
2022-11-08T23:17:07.639Z,14.67
2022-11-08T23:19:53.110Z,14.64
2022-11-08T23:22:39.433Z,14.70
2022-11-08T23:25:07.950Z,14.66
2022-11-08T23:27:52.993Z,14.65
2022-11-08T23:30:40.038Z,14.67
2022-11-08T23:33:08.330Z,14.68
2022-11-08T23:35:36.259Z,14.68
2022-11-08T23:38:06.125Z,14.68
2022-11-08T23:40:51.114Z,14.69
2022-11-08T23:43:38.147Z,14.72
2022-11-08T23:46:09.682Z,14.72
2022-11-08T23:48:39.113Z,14.77
2022-11-08T23:51:07.639Z,14.78
2022-11-08T23:53:37.286Z,14.80
2022-11-08T23:56:06.341Z,14.81
2022-11-08T23:58:34.382Z,14.81
